Time;durP1;ratioP1;P1;durP2;ratioP2;P2;SDS_P1;SDS_P2;PMS_P1;PMS_P2;Temp;Humidity;BMP_temperature;BMP_pressure;BME280_temperature;BME280_humidity;BME280_pressure;Samples;Min_cycle;Max_cycle;Signal;HPM_P1;HPM_P2
2024/01/28 00:01:18;;;;;;;44.97;5.00;;;;;;;5.14;100.00;102638.41;5071603;28;20047;-69
2024/01/28 00:03:43;;;;;;;43.40;5.90;;;;;;;5.14;100.00;102648.22;5055672;28;20096;-69
2024/01/28 00:06:09;;;;;;;40.00;5.28;;;;;;;5.13;100.00;102644.72;5094160;28;20025;-70
2024/01/28 00:08:40;;;;;;;42.55;4.78;;;;;;;5.13;100.00;102649.16;5072685;28;20386;-69
2024/01/28 00:11:06;;;;;;;38.83;4.65;;;;;;;5.08;100.00;102644.19;5073410;28;20025;-70
2024/01/28 00:13:34;;;;;;;43.13;4.75;;;;;;;5.07;100.00;102639.84;5072241;28;20040;-70
2024/01/28 00:15:59;;;;;;;46.15;5.28;;;;;;;5.07;100.00;102645.19;5072303;28;20027;-69
2024/01/28 00:18:25;;;;;;;36.58;4.50;;;;;;;5.06;100.00;102642.63;5074530;28;20471;-69
2024/01/28 00:20:50;;;;;;;40.85;4.70;;;;;;;5.05;100.00;102652.44;5058404;28;20048;-69
2024/01/28 00:23:15;;;;;;;33.70;4.90;;;;;;;4.91;100.00;102632.16;5093164;28;20036;-70
2024/01/28 00:25:41;;;;;;;39.65;6.07;;;;;;;5.04;100.00;102660.56;5075983;28;20478;-70
2024/01/28 00:28:06;;;;;;;43.55;5.32;;;;;;;5.05;100.00;102660.44;5075983;28;20086;-70
2024/01/28 00:30:32;;;;;;;46.60;5.47;;;;;;;5.04;100.00;102661.44;5092999;28;20130;-70
2024/01/28 00:33:01;;;;;;;40.90;4.65;;;;;;;5.00;100.00;102654.63;5091971;28;20029;-71
2024/01/28 00:35:26;;;;;;;45.22;5.18;;;;;;;5.02;100.00;102651.84;5075905;28;20021;-69
2024/01/28 00:37:54;;;;;;;44.45;5.45;;;;;;;5.00;100.00;102643.97;5058949;28;20479;-67
2024/01/28 00:40:20;;;;;;;41.78;5.03;;;;;;;5.03;100.00;102658.84;5058634;28;20449;-69
2024/01/28 00:42:46;;;;;;;47.17;5.43;;;;;;;4.99;100.00;102658.25;5075583;28;20032;-69
2024/01/28 00:45:12;;;;;;;43.22;5.10;;;;;;;4.99;100.00;102660.91;5075103;28;20483;-70
2024/01/28 00:47:44;;;;;;;44.15;5.22;;;;;;;4.95;100.00;102651.44;5061903;28;20138;-70
2024/01/28 00:50:10;;;;;;;49.83;5.95;;;;;;;4.93;100.00;102648.03;5075226;28;20031;-69
2024/01/28 00:52:35;;;;;;;44.42;5.30;;;;;;;4.94;100.00;102655.09;5075779;28;20037;-70
2024/01/28 00:55:01;;;;;;;42.92;4.78;;;;;;;4.92;100.00;102646.34;5074158;28;20031;-70
2024/01/28 00:57:26;;;;;;;38.50;4.75;;;;;;;4.90;100.00;102646.47;5076168;28;20032;-70
2024/01/28 00:59:51;;;;;;;46.42;5.47;;;;;;;4.90;100.00;102648.25;5057006;28;20036;-70
2024/01/28 01:02:17;;;;;;;42.47;5.53;;;;;;;4.88;100.00;102650.22;5075617;28;20028;-70
2024/01/28 01:04:42;;;;;;;41.35;4.95;;;;;;;4.58;100.00;102608.06;5059088;28;20046;-70
2024/01/28 01:07:09;;;;;;;43.10;5.15;;;;;;;4.87;100.00;102665.38;5075656;28;20107;-69
2024/01/28 01:09:35;;;;;;;48.63;5.68;;;;;;;4.76;100.00;102646.66;5058342;28;20024;-70
2024/01/28 01:12:04;;;;;;;42.30;5.18;;;;;;;4.87;100.00;102659.19;5057943;28;20056;-70
2024/01/28 01:14:30;;;;;;;39.83;4.43;;;;;;;4.85;100.00;102655.78;5075283;28;20039;-70
2024/01/28 01:16:55;;;;;;;39.17;5.72;;;;;;;4.83;100.00;102658.56;5073770;28;20083;-71
2024/01/28 01:19:21;;;;;;;39.85;5.90;;;;;;;4.82;100.00;102656.84;5073828;28;20032;-70
2024/01/28 01:21:50;;;;;;;45.05;5.00;;;;;;;4.79;100.00;102651.75;5090677;28;20071;-70
2024/01/28 01:24:16;;;;;;;35.90;5.07;;;;;;;4.80;100.00;102663.28;5091611;28;20048;-70
2024/01/28 01:26:41;;;;;;;52.72;6.07;;;;;;;4.59;100.00;102621.25;5057701;28;20039;-69
2024/01/28 01:29:06;;;;;;;57.70;6.60;;;;;;;4.78;100.00;102654.56;5090715;28;20050;-70
2024/01/28 01:31:32;;;;;;;40.47;5.10;;;;;;;4.75;100.00;102655.63;5073882;28;20040;-70
2024/01/28 01:33:57;;;;;;;53.85;6.05;;;;;;;4.68;100.00;102660.56;5074177;28;20134;-68
2024/01/28 01:36:22;;;;;;;49.00;5.45;;;;;;;4.63;100.00;102657.38;5091027;28;20190;-70
2024/01/28 01:38:48;;;;;;;49.17;5.40;;;;;;;4.63;100.00;102673.38;5073848;28;20557;-70
2024/01/28 01:41:14;;;;;;;31.65;4.60;;;;;;;4.61;100.00;102674.50;5056901;28;20070;-70
2024/01/28 01:43:39;;;;;;;45.45;5.28;;;;;;;4.58;100.00;102672.88;5074765;28;20108;-69
2024/01/28 01:46:06;;;;;;;42.22;4.72;;;;;;;4.60;100.00;102675.44;5074496;28;20123;-70
2024/01/28 01:48:32;;;;;;;41.10;4.95;;;;;;;4.61;100.00;102670.00;5074364;28;20120;-70
2024/01/28 01:50:57;;;;;;;42.10;4.88;;;;;;;4.51;100.00;102646.81;5074446;28;20494;-70
2024/01/28 01:53:23;;;;;;;38.78;4.95;;;;;;;4.64;100.00;102663.59;5075247;28;20055;-70
2024/01/28 01:55:48;;;;;;;43.63;5.25;;;;;;;4.52;100.00;102635.16;5073769;28;20513;-70
2024/01/28 01:58:14;;;;;;;46.47;5.10;;;;;;;4.64;100.00;102652.94;5073889;28;20097;-70
2024/01/28 02:00:41;;;;;;;46.67;5.63;;;;;;;4.64;100.00;102652.94;5073789;28;20541;-69
2024/01/28 02:03:06;;;;;;;39.20;5.65;;;;;;;4.63;100.00;102649.38;5073924;28;20119;-70
2024/01/28 02:05:33;;;;;;;49.63;5.13;;;;;;;4.48;100.00;102626.56;5075228;28;20036;-70
2024/01/28 02:07:59;;;;;;;42.72;4.97;;;;;;;4.64;100.00;102659.09;5073752;28;20032;-70
2024/01/28 02:10:25;;;;;;;31.33;4.60;;;;;;;4.60;100.00;102668.31;5074956;28;20493;-70
2024/01/28 02:12:50;;;;;;;38.97;4.55;;;;;;;4.59;100.00;102666.59;5090876;28;20059;-69
2024/01/28 02:15:16;;;;;;;48.20;5.15;;;;;;;4.58;100.00;102670.22;5089814;28;20052;-70
2024/01/28 02:17:42;;;;;;;46.05;5.40;;;;;;;4.51;100.00;102654.81;5075453;28;20029;-70
2024/01/28 02:20:08;;;;;;;37.47;5.72;;;;;;;4.58;100.00;102670.22;5072763;28;20036;-70
2024/01/28 02:22:35;;;;;;;41.10;4.70;;;;;;;4.60;100.00;102668.31;5089566;28;20124;-70
2024/01/28 02:25:03;;;;;;;32.55;4.18;;;;;;;4.61;100.00;102664.66;5072971;28;20115;-70
2024/01/28 02:27:28;;;;;;;41.63;4.70;;;;;;;4.61;100.00;102654.00;5072738;28;20119;-69
2024/01/28 02:29:55;;;;;;;41.17;5.00;;;;;;;4.60;100.00;102657.66;5089892;28;20056;-69
2024/01/28 02:32:21;;;;;;;42.65;4.57;;;;;;;4.59;100.00;102658.59;5055918;28;20467;-69
2024/01/28 02:34:48;;;;;;;39.80;5.28;;;;;;;4.58;100.00;102667.56;5073645;28;20063;-70
2024/01/28 02:37:32;;;;;;;39.53;4.50;;;;;;;4.59;100.00;102660.41;5072247;28;20799;-69
2024/01/28 02:39:57;;;;;;;37.37;4.60;;;;;;;4.59;100.00;102660.41;5073961;28;20029;-69
2024/01/28 02:42:23;;;;;;;40.40;4.35;;;;;;;4.58;100.00;102659.56;5056370;28;20040;-70
2024/01/28 02:44:48;;;;;;;34.03;4.32;;;;;;;4.58;100.00;102659.56;5073332;28;20095;-70
2024/01/28 02:47:14;;;;;;;38.08;5.30;;;;;;;4.59;100.00;102665.75;5055509;28;20664;-70
2024/01/28 02:49:39;;;;;;;39.47;4.68;;;;;;;4.53;100.00;102655.53;5073871;28;20394;-70
2024/01/28 02:52:05;;;;;;;41.08;5.90;;;;;;;4.52;100.00;102660.00;5056306;28;20028;-68
2024/01/28 02:54:30;;;;;;;40.80;5.55;;;;;;;4.55;100.00;102659.78;5073188;28;20491;-70
2024/01/28 02:56:56;;;;;;;47.83;5.13;;;;;;;4.52;100.00;102665.34;5072990;28;20036;-69
2024/01/28 02:59:21;;;;;;;38.95;4.93;;;;;;;4.54;100.00;102655.44;5073054;28;20029;-69
2024/01/28 03:01:48;;;;;;;34.28;4.53;;;;;;;4.54;100.00;102659.91;5073275;28;20035;-70
2024/01/28 03:04:14;;;;;;;40.00;4.60;;;;;;;4.51;100.00;102663.66;5074234;28;20185;-70
2024/01/28 03:06:40;;;;;;;35.22;5.28;;;;;;;4.46;100.00;102649.78;5074381;28;20113;-70
2024/01/28 03:09:05;;;;;;;43.17;5.00;;;;;;;4.38;100.00;102625.53;5072783;28;20507;-70
2024/01/28 03:11:32;;;;;;;36.95;5.43;;;;;;;4.50;100.00;102635.28;5072361;28;20024;-70
2024/01/28 03:13:58;;;;;;;34.08;5.13;;;;;;;4.49;100.00;102644.25;5055165;28;20521;-68
2024/01/28 03:16:23;;;;;;;50.03;5.85;;;;;;;4.50;100.00;102653.09;5073591;28;20028;-69
2024/01/28 03:18:49;;;;;;;41.70;5.18;;;;;;;4.50;100.00;102651.25;5055313;28;20510;-70
2024/01/28 03:21:15;;;;;;;53.33;5.75;;;;;;;4.49;100.00;102644.25;5055930;28;20033;-70
2024/01/28 03:23:41;;;;;;;41.65;5.13;;;;;;;4.48;100.00;102638.06;5072532;28;20499;-69
2024/01/28 03:26:10;;;;;;;38.80;4.57;;;;;;;4.47;100.00;102632.88;5073799;28;20035;-69
2024/01/28 03:28:36;;;;;;;35.85;5.13;;;;;;;4.46;100.00;102625.81;5072260;28;20028;-69
2024/01/28 03:31:01;;;;;;;41.50;4.38;;;;;;;4.43;100.00;102631.38;5073789;28;20032;-70
2024/01/28 03:33:27;;;;;;;40.95;4.88;;;;;;;4.38;100.00;102637.06;5091153;28;20036;-69
2024/01/28 03:35:52;;;;;;;43.00;5.00;;;;;;;4.40;100.00;102631.59;5075780;28;20040;-69
2024/01/28 03:38:18;;;;;;;41.40;4.93;;;;;;;4.36;100.00;102638.13;5087657;28;20557;-69
2024/01/28 03:40:43;;;;;;;48.47;5.38;;;;;;;4.26;100.00;102634.44;5089726;28;20033;-69
2024/01/28 03:43:09;;;;;;;41.08;4.82;;;;;;;4.35;100.00;102655.94;5072522;28;20475;-69
2024/01/28 03:45:34;;;;;;;46.10;5.57;;;;;;;4.37;100.00;102661.13;5056038;28;20517;-69
2024/01/28 03:48:00;;;;;;;39.55;5.10;;;;;;;4.34;100.00;102650.69;5055819;28;20028;-70
2024/01/28 03:50:28;;;;;;;36.78;5.53;;;;;;;4.32;100.00;102652.66;5073714;28;20056;-69
2024/01/28 03:53:12;;;;;;;36.75;4.60;;;;;;;4.30;100.00;102643.91;5074383;28;20029;-69
2024/01/28 03:55:38;;;;;;;38.13;5.18;;;;;;;4.26;100.00;102643.28;5075968;28;20039;-68
2024/01/28 03:58:10;;;;;;;39.25;4.50;;;;;;;4.20;100.00;102644.56;5075710;28;20123;-68
2024/01/28 04:00:35;;;;;;;42.75;5.40;;;;;;;4.12;100.00;102630.13;5077192;28;20024;-68
2024/01/28 04:03:01;;;;;;;42.92;4.95;;;;;;;4.18;100.00;102649.19;5075960;28;20044;-70
2024/01/28 04:05:27;;;;;;;36.20;5.07;;;;;;;4.17;100.00;102658.16;5075634;28;20032;-69
2024/01/28 04:07:52;;;;;;;33.70;4.82;;;;;;;4.19;100.00;102655.34;5058867;28;20040;-69
2024/01/28 04:10:18;;;;;;;34.95;5.82;;;;;;;4.11;100.00;102629.28;5075058;28;20028;-70
2024/01/28 04:12:43;;;;;;;40.22;5.10;;;;;;;4.21;100.00;102642.78;5076315;28;20041;-70
2024/01/28 04:15:15;;;;;;;45.30;5.18;;;;;;;4.18;100.00;102635.84;5075084;28;20029;-70
2024/01/28 04:17:42;;;;;;;39.42;5.05;;;;;;;4.23;100.00;102641.69;5075362;28;20394;-69
2024/01/28 04:20:10;;;;;;;48.40;5.30;;;;;;;4.17;100.00;102636.81;5076747;28;20024;-70
2024/01/28 04:22:35;;;;;;;32.40;4.38;;;;;;;4.21;100.00;102643.63;5076766;28;20033;-70
2024/01/28 04:25:03;;;;;;;41.38;5.15;;;;;;;4.04;100.00;102627.16;5074671;28;20028;-69
2024/01/28 04:27:28;;;;;;;36.80;5.47;;;;;;;4.10;100.00;102642.69;5076546;28;20032;-69
2024/01/28 04:29:55;;;;;;;39.80;5.18;;;;;;;4.20;100.00;102659.72;5076807;28;20055;-69
2024/01/28 04:32:21;;;;;;;39.42;5.13;;;;;;;4.23;100.00;102671.00;5092977;28;20036;-70
2024/01/28 04:34:46;;;;;;;38.45;4.30;;;;;;;4.23;100.00;102670.16;5078264;28;20482;-69
2024/01/28 04:37:13;;;;;;;36.03;4.63;;;;;;;4.26;100.00;102674.41;5057864;28;20147;-69
2024/01/28 04:39:40;;;;;;;39.97;5.25;;;;;;;4.27;100.00;102671.63;5077238;28;20037;-70
2024/01/28 04:42:06;;;;;;;47.50;5.68;;;;;;;4.28;100.00;102675.16;5058556;28;20044;-69
2024/01/28 04:44:31;;;;;;;28.63;4.90;;;;;;;4.30;100.00;102673.22;5075671;28;20024;-70
2024/01/28 04:46:57;;;;;;;37.78;4.30;;;;;;;4.34;100.00;102672.00;5075310;28;20031;-69
2024/01/28 04:49:24;;;;;;;37.38;4.90;;;;;;;4.11;100.00;102636.44;5075221;28;20025;-68
2024/01/28 04:51:50;;;;;;;39.85;4.70;;;;;;;4.24;100.00;102663.88;5075867;28;20093;-69
2024/01/28 04:54:16;;;;;;;39.78;4.90;;;;;;;4.26;100.00;102664.59;5076583;28;20433;-69
2024/01/28 04:56:42;;;;;;;33.10;4.70;;;;;;;4.41;100.00;102689.28;5076161;28;20024;-71
2024/01/28 04:59:07;;;;;;;45.55;5.93;;;;;;;4.41;100.00;102682.13;5092151;28;20475;-70
2024/01/28 05:01:34;;;;;;;33.00;4.47;;;;;;;4.36;100.00;102667.44;5074472;28;20043;-69
2024/01/28 05:04:01;;;;;;;32.53;4.70;;;;;;;4.45;100.00;102677.44;5072881;28;20068;-69
2024/01/28 05:06:34;;;;;;;44.65;5.22;;;;;;;4.43;100.00;102680.19;5075401;28;20076;-70
2024/01/28 05:09:03;;;;;;;38.63;4.68;;;;;;;4.31;100.00;102677.59;5059244;28;20085;-68
2024/01/28 05:11:30;;;;;;;34.70;4.30;;;;;;;4.42;100.00;102688.31;5074244;28;20127;-69
2024/01/28 05:13:58;;;;;;;37.67;5.00;;;;;;;4.35;100.00;102677.25;5076428;28;20040;-69
2024/01/28 05:16:24;;;;;;;37.70;4.10;;;;;;;4.35;100.00;102689.72;5074140;28;20401;-69
2024/01/28 05:18:51;;;;;;;29.77;4.57;;;;;;;4.13;100.00;102648.66;5076138;28;20115;-68
2024/01/28 05:21:17;;;;;;;35.97;4.80;;;;;;;4.35;100.00;102671.91;5075357;28;20017;-70
2024/01/28 05:23:42;;;;;;;35.47;5.05;;;;;;;4.33;100.00;102662.34;5076466;28;20035;-68
2024/01/28 05:26:07;;;;;;;34.25;5.03;;;;;;;4.31;100.00;102661.59;5077058;28;20036;-70
2024/01/28 05:28:33;;;;;;;45.55;5.40;;;;;;;4.22;100.00;102640.00;5076764;28;20039;-69
2024/01/28 05:30:58;;;;;;;46.15;4.57;;;;;;;4.30;100.00;102660.72;5078951;28;20583;-70
2024/01/28 05:33:24;;;;;;;36.47;4.75;;;;;;;4.28;100.00;102652.03;5093263;28;20028;-69
2024/01/28 05:35:49;;;;;;;40.08;4.60;;;;;;;4.31;100.00;102674.94;5057540;28;20402;-70
2024/01/28 05:38:15;;;;;;;39.15;4.70;;;;;;;4.30;100.00;102671.41;5056493;28;20105;-70
2024/01/28 05:40:41;;;;;;;37.35;5.30;;;;;;;4.21;100.00;102656.09;5074456;28;20029;-70
2024/01/28 05:43:07;;;;;;;35.90;4.10;;;;;;;4.32;100.00;102680.13;5073606;28;20111;-70
2024/01/28 05:45:32;;;;;;;44.38;4.65;;;;;;;4.31;100.00;102678.44;5090353;28;20055;-69
2024/01/28 05:48:01;;;;;;;43.20;5.25;;;;;;;4.33;100.00;102670.31;5075389;28;20245;-70
2024/01/28 05:50:30;;;;;;;35.25;4.88;;;;;;;4.31;100.00;102665.13;5073898;28;20123;-70
2024/01/28 05:52:55;;;;;;;41.92;5.10;;;;;;;4.27;100.00;102660.09;5075267;28;20119;-70
2024/01/28 05:55:20;;;;;;;41.58;5.63;;;;;;;4.31;100.00;102661.59;5090188;28;20413;-69
2024/01/28 05:57:48;;;;;;;33.38;5.30;;;;;;;4.32;100.00;102665.97;5057109;28;20035;-70
2024/01/28 06:00:14;;;;;;;46.58;5.80;;;;;;;4.31;100.00;102672.28;5056359;28;20055;-70
2024/01/28 06:02:40;;;;;;;44.63;6.05;;;;;;;4.31;100.00;102667.78;5056621;28;20036;-70
2024/01/28 06:05:05;;;;;;;37.97;5.15;;;;;;;4.21;100.00;102654.28;5074043;28;20028;-70
2024/01/28 06:07:31;;;;;;;34.25;5.32;;;;;;;4.30;100.00;102684.72;5090051;28;20036;-70
2024/01/28 06:09:57;;;;;;;36.10;5.43;;;;;;;4.31;100.00;102686.44;5074378;28;20024;-70
2024/01/28 06:12:22;;;;;;;40.90;4.65;;;;;;;4.30;100.00;102687.38;5077761;28;20048;-70
2024/01/28 06:14:47;;;;;;;31.88;4.30;;;;;;;4.27;100.00;102676.94;5075442;28;20040;-70
2024/01/28 06:17:14;;;;;;;34.60;4.55;;;;;;;4.28;100.00;102681.34;5093780;28;20550;-70
2024/01/28 06:19:40;;;;;;;30.83;4.38;;;;;;;4.13;100.00;102653.13;5075871;28;20032;-70
2024/01/28 06:22:05;;;;;;;41.38;5.88;;;;;;;4.27;100.00;102682.28;5075599;28;20078;-68
2024/01/28 06:24:32;;;;;;;42.15;5.35;;;;;;;4.27;100.00;102697.41;5060952;28;20021;-69
2024/01/28 06:26:57;;;;;;;34.95;4.90;;;;;;;4.04;100.00;102667.09;5076776;28;20025;-70
2024/01/28 06:29:23;;;;;;;50.35;6.72;;;;;;;4.27;100.00;102702.75;5075708;28;20452;-70
2024/01/28 06:31:50;;;;;;;45.28;4.45;;;;;;;4.27;100.00;102708.06;5073295;28;20100;-70
2024/01/28 06:34:16;;;;;;;43.33;5.07;;;;;;;4.26;100.00;102711.72;5072719;28;20131;-70
2024/01/28 06:36:41;;;;;;;46.53;5.75;;;;;;;4.26;100.00;102719.72;5089013;28;20076;-70
2024/01/28 06:39:08;;;;;;;43.40;5.20;;;;;;;4.19;100.00;102701.50;5089257;28;20032;-70
2024/01/28 06:41:34;;;;;;;44.92;5.20;;;;;;;4.26;100.00;102706.38;5072777;28;20117;-70
2024/01/28 06:44:01;;;;;;;44.40;5.35;;;;;;;4.08;100.00;102672.13;5073539;28;20471;-70
2024/01/28 06:46:28;;;;;;;44.40;4.47;;;;;;;4.25;100.00;102702.88;5073229;28;20029;-71
2024/01/28 06:48:53;;;;;;;36.42;4.72;;;;;;;4.19;100.00;102680.19;5075125;28;20035;-71
2024/01/28 06:51:19;;;;;;;32.35;4.50;;;;;;;4.09;100.00;102657.84;5072682;28;20412;-70
2024/01/28 06:53:44;;;;;;;36.80;5.28;;;;;;;4.22;100.00;102671.13;5081632;28;20032;-72
2024/01/28 06:56:10;;;;;;;40.78;5.03;;;;;;;4.19;100.00;102663.34;5073952;28;20030;-71
2024/01/28 06:58:35;;;;;;;33.30;4.32;;;;;;;4.18;100.00;102662.50;5073221;28;20047;-71
2024/01/28 07:01:00;;;;;;;38.17;5.30;;;;;;;3.80;100.00;102604.00;5072247;28;20024;-71
2024/01/28 07:03:26;;;;;;;40.03;4.32;;;;;;;4.19;100.00;102680.19;5073760;28;20120;-70
2024/01/28 07:05:51;;;;;;;39.75;4.65;;;;;;;4.19;100.00;102684.66;5074341;28;20037;-70
2024/01/28 07:08:18;;;;;;;39.75;5.32;;;;;;;4.20;100.00;102697.00;5073593;28;20561;-70
2024/01/28 07:10:43;;;;;;;32.22;4.57;;;;;;;4.20;100.00;102683.69;5090949;28;20347;-71
2024/01/28 07:13:30;;;;;;;30.20;4.13;;;;;;;4.22;100.00;102685.28;5075026;28;20081;-71
2024/01/28 07:16:01;;;;;;;36.53;4.75;;;;;;;4.21;100.00;102672.09;5075985;28;20032;-70
2024/01/28 07:18:33;;;;;;;40.30;5.65;;;;;;;4.00;100.00;102619.38;5088524;28;20029;-69
2024/01/28 07:20:59;;;;;;;36.50;4.72;;;;;;;4.23;100.00;102660.34;5080035;28;20056;-71
2024/01/28 07:23:24;;;;;;;39.20;5.00;;;;;;;4.22;100.00;102661.31;5058245;28;20098;-69
2024/01/28 07:25:50;;;;;;;51.33;5.72;;;;;;;4.22;100.00;102669.31;5073866;28;20048;-71
2024/01/28 07:28:16;;;;;;;43.22;5.80;;;;;;;4.22;100.00;102684.44;5094430;28;20699;-72
2024/01/28 07:30:42;;;;;;;32.10;4.72;;;;;;;4.14;100.00;102671.69;5078567;28;20079;-70
2024/01/28 07:33:08;;;;;;;33.78;5.03;;;;;;;4.21;100.00;102688.06;5061733;28;20572;-70
2024/01/28 07:35:36;;;;;;;42.97;5.32;;;;;;;4.14;100.00;102677.00;5065287;28;20032;-71
2024/01/28 07:38:03;;;;;;;37.92;4.88;;;;;;;4.22;100.00;102689.78;5075171;28;20112;-71
2024/01/28 07:40:29;;;;;;;41.00;4.60;;;;;;;4.11;100.00;102681.72;5077139;28;20046;-71
2024/01/28 07:42:55;;;;;;;38.38;4.22;;;;;;;4.26;100.00;102709.91;5075893;28;20115;-70
2024/01/28 07:45:21;;;;;;;38.08;5.22;;;;;;;4.24;100.00;102712.69;5058505;28;20051;-70
2024/01/28 07:47:47;;;;;;;39.60;4.93;;;;;;;4.30;100.00;102713.19;5076673;28;20205;-70
2024/01/28 07:50:12;;;;;;;35.08;6.20;;;;;;;4.30;100.00;102707.84;5091255;28;20090;-70
2024/01/28 07:52:38;;;;;;;27.48;4.25;;;;;;;4.13;100.00;102664.63;5073911;28;20024;-69
2024/01/28 07:55:05;;;;;;;35.63;4.20;;;;;;;4.37;100.00;102694.00;5077360;28;20543;-70
2024/01/28 07:57:30;;;;;;;28.08;4.53;;;;;;;4.40;100.00;102684.91;5061889;28;20474;-70
2024/01/28 07:59:57;;;;;;;44.90;4.75;;;;;;;4.41;100.00;102699.94;5077781;28;20032;-70
2024/01/28 08:02:22;;;;;;;38.92;5.55;;;;;;;4.45;100.00;102696.94;5060918;28;20567;-70
2024/01/28 08:04:48;;;;;;;35.03;4.80;;;;;;;4.45;100.00;102702.25;5078531;28;20060;-71
2024/01/28 08:07:14;;;;;;;29.48;4.22;;;;;;;4.47;100.00;102700.34;5077567;28;20133;-70
2024/01/28 08:09:40;;;;;;;32.97;5.40;;;;;;;4.52;100.00;102704.47;5079698;28;20041;-70
2024/01/28 08:12:07;;;;;;;38.45;4.82;;;;;;;4.45;100.00;102691.59;5085449;28;20037;-69
2024/01/28 08:14:32;;;;;;;29.83;4.45;;;;;;;4.45;100.00;102682.75;5090714;28;20025;-70
2024/01/28 08:16:58;;;;;;;30.17;4.20;;;;;;;4.56;100.00;102698.81;5096336;28;20437;-69
2024/01/28 08:19:24;;;;;;;31.02;4.20;;;;;;;4.54;100.00;102686.56;5077910;28;20035;-70
2024/01/28 08:21:50;;;;;;;37.72;4.18;;;;;;;4.53;100.00;102677.69;5076996;28;20032;-70
2024/01/28 08:24:15;;;;;;;38.00;5.15;;;;;;;4.58;100.00;102701.38;5079311;28;20716;-71
2024/01/28 08:26:41;;;;;;;26.52;4.18;;;;;;;4.58;100.00;102712.03;5079007;28;20453;-70
2024/01/28 08:29:06;;;;;;;31.75;4.13;;;;;;;4.56;100.00;102704.13;5076242;28;20037;-70
2024/01/28 08:31:32;;;;;;;33.92;4.47;;;;;;;4.54;100.00;102691.91;5076812;28;20033;-70
2024/01/28 08:33:57;;;;;;;30.77;4.10;;;;;;;4.58;100.00;102706.72;5079119;28;20082;-70
2024/01/28 08:36:22;;;;;;;25.92;4.40;;;;;;;4.59;100.00;102698.56;5076242;28;20143;-70
2024/01/28 08:38:48;;;;;;;31.67;4.35;;;;;;;4.61;100.00;102702.00;5076731;28;20482;-70
2024/01/28 08:41:13;;;;;;;28.35;3.85;;;;;;;4.63;100.00;102712.53;5075913;28;20044;-70
2024/01/28 08:43:38;;;;;;;29.65;4.13;;;;;;;4.62;100.00;102727.69;5060771;28;20024;-70
2024/01/28 08:46:04;;;;;;;35.00;3.97;;;;;;;4.50;100.00;102693.91;5077290;28;20032;-70
2024/01/28 08:48:30;;;;;;;33.85;4.70;;;;;;;4.64;100.00;102701.78;5077758;28;20039;-71
2024/01/28 08:50:55;;;;;;;29.42;3.80;;;;;;;4.67;100.00;102709.53;5076295;28;20132;-69
2024/01/28 08:53:21;;;;;;;29.15;4.50;;;;;;;4.68;100.00;102708.56;5059497;28;20056;-70
2024/01/28 08:55:46;;;;;;;35.70;4.68;;;;;;;4.50;100.00;102675.25;5077875;28;20033;-70
2024/01/28 08:58:11;;;;;;;35.25;4.65;;;;;;;4.68;100.00;102697.91;5077888;28;20024;-70
2024/01/28 09:00:39;;;;;;;37.05;4.90;;;;;;;4.69;100.00;102694.25;5076061;28;20395;-71
2024/01/28 09:03:04;;;;;;;26.35;4.03;;;;;;;4.70;100.00;102709.31;5077497;28;20028;-70
2024/01/28 09:05:30;;;;;;;32.10;3.85;;;;;;;4.72;100.00;102701.19;5094760;28;20036;-70
2024/01/28 09:07:56;;;;;;;32.28;3.67;;;;;;;4.74;100.00;102690.44;5086568;28;20040;-69
2024/01/28 09:10:22;;;;;;;29.60;4.68;;;;;;;4.74;100.00;102677.94;5085219;28;20059;-69
2024/01/28 09:12:48;;;;;;;36.40;4.65;;;;;;;4.78;100.00;102679.41;5057535;28;20025;-69
2024/01/28 09:15:13;;;;;;;36.67;4.03;;;;;;;4.82;100.00;102682.69;5090506;28;20563;-69
2024/01/28 09:17:39;;;;;;;32.10;4.03;;;;;;;4.76;100.00;102693.81;5073616;28;20378;-69
2024/01/28 09:20:06;;;;;;;29.50;4.40;;;;;;;4.82;100.00;102685.34;5074625;28;20103;-69
2024/01/28 09:22:34;;;;;;;28.38;3.95;;;;;;;4.84;100.00;102694.94;5073472;28;20043;-69
2024/01/28 09:24:59;;;;;;;30.13;4.28;;;;;;;4.86;100.00;102705.47;5073896;28;20109;-69
2024/01/28 09:27:25;;;;;;;27.30;3.95;;;;;;;4.88;100.00;102711.56;5074250;28;20032;-69
2024/01/28 09:29:51;;;;;;;28.50;4.03;;;;;;;4.89;100.00;102727.44;5088935;28;20041;-68
2024/01/28 09:32:18;;;;;;;29.10;3.83;;;;;;;4.76;100.00;102701.81;5090137;28;20029;-69
2024/01/28 09:34:45;;;;;;;25.73;3.97;;;;;;;4.93;100.00;102725.41;5073935;28;20068;-68
2024/01/28 09:37:10;;;;;;;25.73;3.95;;;;;;;4.94;100.00;102729.78;5072385;28;20068;-69
2024/01/28 09:39:36;;;;;;;24.63;3.95;;;;;;;4.86;100.00;102710.81;5074338;28;20029;-69
2024/01/28 09:42:24;;;;;;;28.05;4.20;;;;;;;4.96;100.00;102722.50;5073021;28;20033;-69
2024/01/28 09:44:52;;;;;;;26.02;3.22;;;;;;;4.99;100.00;102716.09;5073207;28;20020;-68
2024/01/28 09:47:22;;;;;;;29.33;4.18;;;;;;;5.06;100.00;102720.00;5055759;28;20035;-70
2024/01/28 09:49:49;;;;;;;24.15;3.60;;;;;;;4.99;100.00;102719.59;5072005;28;20032;-68
2024/01/28 09:52:16;;;;;;;20.27;3.42;;;;;;;5.06;100.00;102728.84;5056619;28;20486;-68
2024/01/28 09:54:46;;;;;;;21.10;3.40;;;;;;;5.07;100.00;102717.22;5072713;28;20040;-68
2024/01/28 09:57:14;;;;;;;29.48;3.53;;;;;;;5.06;100.00;102712.00;5072041;28;20067;-69
2024/01/28 09:59:39;;;;;;;25.73;3.85;;;;;;;5.13;100.00;102718.56;5073371;28;20028;-69
2024/01/28 10:02:06;;;;;;;24.13;4.10;;;;;;;5.15;100.00;102711.28;5092348;28;20050;-68
2024/01/28 10:04:32;;;;;;;20.75;3.25;;;;;;;5.13;100.00;102702.53;5079185;28;20029;-69
2024/01/28 10:07:09;;;;;;;20.45;3.67;;;;;;;5.23;100.00;102697.34;5073301;28;20074;-68
2024/01/28 10:09:34;;;;;;;21.17;2.83;;;;;;;5.14;100.00;102683.75;5072471;28;20371;-69
2024/01/28 10:12:00;;;;;;;28.15;4.20;;;;;;;5.24;100.00;102697.25;5089884;28;20035;-70
2024/01/28 10:14:27;;;;;;;21.63;2.78;;;;;;;5.23;100.00;102705.38;5073406;28;20021;-69
2024/01/28 10:16:54;;;;;;;19.75;3.05;;;;;;;5.25;100.00;102708.78;5072086;28;20037;-69
2024/01/28 10:19:22;;;;;;;24.42;3.25;;;;;;;5.28;100.00;102700.53;5088732;28;20032;-69
2024/01/28 10:21:47;;;;;;;30.73;3.63;;;;;;;5.27;100.00;102697.03;5072739;28;20037;-69
2024/01/28 10:24:14;;;;;;;24.02;2.97;;;;;;;5.31;100.00;102716.31;5057070;28;20086;-70
2024/01/28 10:26:40;;;;;;;22.00;3.42;;;;;;;5.28;100.00;102719.22;5090620;28;20025;-71
2024/01/28 10:29:09;;;;;;;26.17;3.10;;;;;;;5.31;100.00;102706.50;5091201;28;20025;-71
2024/01/28 10:31:36;;;;;;;23.05;2.85;;;;;;;5.32;100.00;102710.00;5073904;28;20088;-71
2024/01/28 10:34:02;;;;;;;20.30;3.10;;;;;;;5.35;100.00;102715.09;5075290;28;20116;-70
2024/01/28 10:36:28;;;;;;;22.27;3.35;;;;;;;5.40;100.00;102707.59;5074960;28;20092;-70
2024/01/28 10:39:00;;;;;;;23.25;3.38;;;;;;;5.27;100.00;102677.50;5074287;28;20514;-71
2024/01/28 10:41:26;;;;;;;19.45;2.72;;;;;;;5.30;100.00;102671.91;5074249;28;20090;-71
2024/01/28 10:43:57;;;;;;;25.77;3.58;;;;;;;5.40;100.00;102691.59;5090630;28;20043;-74
2024/01/28 10:46:34;;;;;;;21.50;3.38;;;;;;;5.31;100.00;102687.81;5075408;28;20027;-69
2024/01/28 10:49:03;;;;;;;25.60;3.50;;;;;;;5.29;100.00;102678.22;5073864;28;20028;-70
2024/01/28 10:51:31;;;;;;;25.67;3.03;;;;;;;5.31;100.00;102686.97;5074817;28;20098;-70
2024/01/28 10:53:59;;;;;;;20.15;3.30;;;;;;;5.32;100.00;102691.31;5075072;28;20032;-71
2024/01/28 10:56:25;;;;;;;22.08;3.70;;;;;;;5.36;100.00;102690.09;5094479;28;20482;-72
2024/01/28 10:58:52;;;;;;;21.70;3.00;;;;;;;5.38;100.00;102689.03;5076877;28;20043;-71
2024/01/28 11:01:18;;;;;;;16.70;2.90;;;;;;;5.35;100.00;102683.91;5057745;28;20082;-71
2024/01/28 11:03:44;;;;;;;24.77;3.50;;;;;;;5.31;100.00;102670.94;5076319;28;20028;-70
2024/01/28 11:06:09;;;;;;;18.27;2.80;;;;;;;5.31;100.00;102662.94;5073779;28;20024;-70
2024/01/28 11:08:35;;;;;;;20.45;3.55;;;;;;;5.35;100.00;102667.06;5073011;28;20024;-71
2024/01/28 11:11:00;;;;;;;21.25;3.28;;;;;;;5.26;100.00;102643.75;5073434;28;20020;-71
2024/01/28 11:13:27;;;;;;;24.40;3.15;;;;;;;5.39;100.00;102655.16;5073179;28;20032;-70